Aérodrome :
LOGIN :

S'inscrire | Disclaimer

   EN    FR    IT 

 










Légende :    VFR   VFR Marginal   IFR   IFR Intensif   IFR Très Intensif
Visi : 
Plafond : 
>= 8 km
>= 3000ft
5 à 8 km
1000 à 3000 ft
1500m à 5 km
500 à 1000 ft
800 à 1500m
200 à 500 ft
< 800m
< 200 ft
Symboles :   Orages  Brouillard  Fortes neiges  Fortes précipitations  Vent > 20 kt
SIGMETs :   Divers  Orages  Givrage  Turbulence  Onde Orograph.  Cendres Volcan.







- Altitude de l'aérodrome : 502 ft
- Code IATA : ORK


EICK - Cork

DERNIER METAR :
  • 172100Z 21004KT 9999 FEW012 BKN018 07/06 Q1027 NOSIG

METARs EXPIRÉS :
  • 172030Z 22006KT 9999 FEW012 BKN020 07/06 Q1027 NOSIG
  • 172000Z 23005KT 9999 FEW012 BKN020 07/06 Q1027 NOSIG
  • 171930Z 21004KT 9999 FEW012 BKN020 07/06 Q1028 NOSIG
  • 171900Z 17004KT 140V200 9999 FEW016 BKN025 BKN040 07/05 Q1028 NOSIG
  • 171830Z 13004KT 9999 FEW015 BKN025 07/05 Q1028 NOSIG

TAF TAF EICK
Valide du 17 à 18h jusqu'au 18 à 18h UTC


171700Z 1718/1818 VRB03KT 9999 FEW018 BKN030
BECMG 1721/1723 24007KT BKN008
BECMG 1801/1803 4000 BR -DZ BKN007
TEMPO 1802/1808 1200 BKN003
BECMG 1810/1812 25012KT 8000 SCT007 BKN015
Pas de NOTAMs connus pour ce terrain.



MET'MAP, la Météo Aéronautique d'un coup d'oeil ! - Copyright ORBIFLY Décembre 2007 - Disclaimer

ORBIFLY MET'MAP TEAM :

Programmation & Développement : Alexandra Zaïnal
Conception & Développement : Baudouin d'Aumeries
Co-Programmation & Développement : Marc-Olivier Méhu
Soutien technique & logistique : Manuel Goepfert

Contact : metmap@orbifly.com




SOURCES & CREDITS :

   NOAA